KOQT  Oak Ridge Airport

Add Bookmark

Tennessee, United States

Status
Operational
Latitude Longitude
36° 1' 12" N 84° 13' 48" W
36.020000 -84.230000
Local (DST -4) UTC (GMT -5)
Sep 1, 2014 04:57 Sep 1, 2014 20:57
Sunrise-Sunset Local UTC
Begin Civil Twilight 06:41 10:41
Sunrise 07:08 11:08
Sunset 08:05 00:05
End Civil Twilight 08:31 00:31

Current Weather

METAR Observed VFR
KOQT 011953Z AUTO VRB04KT 10SM SCT047 33/21 A3008 Mon, Sep 1, 2014 @ 19:53 UTC
(1 Hour, 4 Minutes ago)
Visual Flight Rules
Wind Visibility Clouds Conditions
Varies at 4 knots (5 mph) 10 statute miles
  • Scattered at 4,700' AGL
  • No significant weather
Temperatures Readings Precipitation
Current Temp 33°C (91°F)
Dewpoint 21°C (70°F)
Heat Index 36°C (96°F)
Humidity 49%
Altimeter 30.08"Hg
Sea Level Pressure 1016.6mb
Field Elevation 908.79'
None Recorded

Additional weather within a 50nm radius of KOQT

Map ICAO Location
KTYS 17nm S (137°)
KMMI 40.6nm S (204°)
KCSV 41.7nm W (265°)
1A6 42.7nm N (034°)

24 Hour Weather History

Loading
-

24 Hour Weather Graphs

Loading
-

CheckWX.com is intended as a tool to help pilots better visualize weather data. It is not intended as a substitute for an official weather briefing obtained from a Flight Service Station. CheckWX.com does not meet the FAA requirements for an official pre-flight weather briefing. Therefore, it's important that pilots still call and obtain an official FSS pre-flight weather briefing.